PDT,Max TemperatureF,Mean TemperatureF,Min TemperatureF,Max Dew PointF,MeanDew PointF,Min DewpointF,Max Humidity, Mean Humidity, Min Humidity, Max Sea Level PressureIn, Mean Sea Level PressureIn, Min Sea Level PressureIn, Max VisibilityMiles, Mean VisibilityMiles, Min VisibilityMiles, Max Wind SpeedMPH, Mean Wind SpeedMPH, Max Gust SpeedMPH,PrecipitationIn, CloudCover, Events, WindDirDegrees
2013-10-1,61,56,50,49,47,42,89,70,51,30.21,30.09,29.99,10,9,2,18,8,28,0.33,5,Rain,188
2013-10-2,54,49,44,47,45,43,93,85,77,30.20,30.14,30.09,10,10,6,14,5,18,0.24,7,Rain,159
2013-10-3,56,51,45,46,45,43,100,81,61,30.45,30.35,30.21,10,6,0,9,3,12,0.00,6,,215
2013-10-4,65,55,44,51,46,43,100,76,52,30.47,30.43,30.35,10,7,0,8,3,10,0.00,5,,278
2013-10-5,73,57,41,52,45,41,100,68,35,30.36,30.26,30.15,10,8,0,10,3,12,0.00,1,Fog,286
2013-10-6,74,59,43,49,44,36,100,66,31,30.15,30.05,29.97,10,7,0,13,4,17,0.00,3,Fog,206
2013-10-7,63,58,53,54,48,44,100,78,55,30.14,30.06,29.99,10,9,4,22,7,26,0.08,7,Rain,235
2013-10-8,58,54,50,52,47,43,89,76,62,30.16,30.06,30.00,10,9,4,16,10,20,0.15,6,Rain,245
2013-10-9,62,51,40,47,42,39,100,77,53,30.14,30.07,29.99,10,8,1,9,2,12,0.00,6,,304
2013-10-10,60,53,45,52,47,44,93,75,57,30.10,30.02,29.97,10,9,4,7,2,,T,7,Rain,238
2013-10-11,59,55,50,50,47,43,93,75,57,30.16,30.13,30.10,10,10,10,8,2,10,0.00,7,,256
2013-10-12,58,54,49,49,46,45,86,79,72,30.19,30.12,30.09,10,8,2,6,0,7,0.02,6,Rain,272
2013-10-13,63,54,45,46,45,43,100,74,48,30.32,30.26,30.19,10,10,6,13,5,18,0.00,5,,314
2013-10-14,69,55,41,47,44,41,100,69,37,30.39,30.35,30.30,10,6,0,12,4,14,0.00,2,Fog,285
2013-10-15,69,55,40,45,42,38,96,65,34,30.36,30.25,30.15,10,10,8,10,4,13,0.00,2,Fog,264
2013-10-16,65,53,41,47,44,40,92,68,44,30.18,30.15,30.12,10,9,6,7,3,10,0.00,2,Fog,297
2013-10-17,65,56,47,50,47,45,100,80,60,30.25,30.21,30.16,10,6,1,10,4,13,0.00,4,,309
2013-10-18,71,57,42,47,45,41,100,70,40,30.20,30.15,30.09,10,9,4,10,5,12,0.00,0,Fog,279
2013-10-19,66,53,40,48,45,39,100,73,45,30.18,30.15,30.11,10,6,0,8,2,9,0.00,2,Fog,294
2013-10-20,63,54,44,50,46,43,100,80,60,30.18,30.14,30.08,10,4,0,8,2,10,0.00,5,Fog,311
2013-10-21,71,59,46,53,48,45,100,74,47,30.12,30.07,30.00,10,5,0,10,4,12,0.00,5,,302
2013-10-22,73,58,42,53,47,42,100,69,38,30.07,30.02,29.96,10,9,6,9,6,10,0.00,1,Fog,279
2013-10-23,70,57,43,52,48,42,100,74,47,30.03,29.99,29.94,10,8,5,8,4,10,0.00,0,Fog,273
2013-10-24,67,57,47,53,49,45,100,79,58,30.12,30.04,30.00,10,5,0,8,3,9,0.00,4,Fog,304
2013-10-25,57,54,50,49,48,48,93,83,72,30.28,30.23,30.12,10,8,4,10,3,12,T,8,,319
2013-10-26,60,56,51,49,47,44,89,78,67,30.30,30.25,30.19,10,9,7,8,3,10,T,6,,305
2013-10-27,59,54,48,49,45,42,93,75,57,30.18,29.96,29.84,10,8,2,17,7,23,0.23,6,Rain,287
2013-10-28,59,49,39,44,37,27,100,68,36,29.94,29.88,29.84,10,10,9,18,5,23,0.00,2,,37
2013-10-29,59,46,32,38,35,31,100,68,36,30.07,30.02,29.95,10,10,7,8,4,16,0.00,0,,264
2013-10-30,57,45,33,46,37,31,96,72,47,30.21,30.16,30.08,10,10,6,7,2,7,0.00,5,Rain,86
2013-10-31,60,55,49,52,49,44,93,79,64,30.29,30.22,30.17,10,10,8,14,7,15,0.04,7,Rain,117